Time;durP1;ratioP1;P1;durP2;ratioP2;P2;SDS_P1;SDS_P2;PMS_P1;PMS_P2;Temp;Humidity;BMP_temperature;BMP_pressure;BME280_temperature;BME280_humidity;BME280_pressure;Samples;Min_cycle;Max_cycle;Signal;HPM_P1;HPM_P2
2023/04/14 00:00:35;;;;;;;32.00;19.60;;;;;;;;;;5029089;28;20669;-66
2023/04/14 00:03:02;;;;;;;30.83;20.57;;;;;;;;;;5029307;28;20266;-66
2023/04/14 00:05:29;;;;;;;29.83;20.53;;;;;;;;;;5011321;28;20718;-66
2023/04/14 00:07:56;;;;;;;30.43;19.97;;;;;;;;;;5029184;28;20183;-66
2023/04/14 00:10:23;;;;;;;28.70;18.80;;;;;;;;;;5028897;28;20543;-66
2023/04/14 00:12:50;;;;;;;28.47;19.17;;;;;;;;;;5011652;28;20187;-66
2023/04/14 00:15:17;;;;;;;29.67;19.23;;;;;;;;;;5029114;28;20184;-66
2023/04/14 00:17:43;;;;;;;30.93;19.10;;;;;;;;;;5028982;28;20206;-66
2023/04/14 00:20:12;;;;;;;27.97;18.50;;;;;;;;;;5027969;28;20192;-66
2023/04/14 00:22:38;;;;;;;25.00;16.67;;;;;;;;;;5029103;28;20265;-66
2023/04/14 00:25:05;;;;;;;27.30;18.17;;;;;;;;;;5028637;28;20188;-66
2023/04/14 00:27:32;;;;;;;22.33;16.20;;;;;;;;;;5028640;28;20191;-66
2023/04/14 00:29:59;;;;;;;25.70;17.10;;;;;;;;;;5011533;28;20191;-66
2023/04/14 00:32:26;;;;;;;17.47;12.90;;;;;;;;;;5011188;28;20219;-66
2023/04/14 00:34:53;;;;;;;18.47;13.50;;;;;;;;;;5028513;28;20191;-66
2023/04/14 00:37:20;;;;;;;16.33;12.30;;;;;;;;;;5028810;28;20207;-66
2023/04/14 00:39:46;;;;;;;18.70;13.13;;;;;;;;;;5028127;28;20246;-67
2023/04/14 00:42:19;;;;;;;15.90;12.00;;;;;;;;;;5011925;28;20195;-66
2023/04/14 00:44:47;;;;;;;17.87;13.73;;;;;;;;;;5028231;28;20245;-66
2023/04/14 00:47:13;;;;;;;15.20;11.30;;;;;;;;;;5028154;28;20199;-66
2023/04/14 00:49:40;;;;;;;14.97;10.73;;;;;;;;;;5028377;28;20187;-66
2023/04/14 00:52:06;;;;;;;15.17;11.13;;;;;;;;;;5028234;28;20195;-66
2023/04/14 00:54:33;;;;;;;14.60;10.07;;;;;;;;;;5009979;28;20207;-66
2023/04/14 00:57:00;;;;;;;12.90;10.53;;;;;;;;;;5028336;28;20225;-66
2023/04/14 00:59:28;;;;;;;14.50;10.63;;;;;;;;;;4994020;28;20222;-66
2023/04/14 01:01:55;;;;;;;14.00;9.97;;;;;;;;;;5028134;28;20222;-66
2023/04/14 01:04:22;;;;;;;12.13;9.73;;;;;;;;;;5010454;28;20298;-66
2023/04/14 01:06:55;;;;;;;12.93;10.33;;;;;;;;;;5009995;28;20191;-66
2023/04/14 01:09:23;;;;;;;11.90;10.00;;;;;;;;;;5028349;28;20281;-67
2023/04/14 01:11:54;;;;;;;13.23;9.80;;;;;;;;;;5010247;28;20191;-66
2023/04/14 01:14:43;;;;;;;12.63;9.97;;;;;;;;;;5028022;28;20239;-67
2023/04/14 01:17:24;;;;;;;11.57;9.40;;;;;;;;;;5010645;28;21092;-67
2023/04/14 01:20:10;;;;;;;12.50;10.03;;;;;;;;;;4994510;28;20187;-66
2023/04/14 01:22:37;;;;;;;11.33;9.53;;;;;;;;;;5027858;28;20241;-67
2023/04/14 01:25:10;;;;;;;12.37;9.93;;;;;;;;;;5028091;28;20214;-66
2023/04/14 01:27:49;;;;;;;14.33;10.47;;;;;;;;;;5010068;28;20195;-66
2023/04/14 01:30:27;;;;;;;14.67;10.47;;;;;;;;;;4994186;28;20199;-67
2023/04/14 01:32:55;;;;;;;12.33;10.03;;;;;;;;;;5013740;28;20690;-66
2023/04/14 01:35:42;;;;;;;13.13;10.27;;;;;;;;;;5014382;28;20275;-67
2023/04/14 01:38:11;;;;;;;12.33;9.53;;;;;;;;;;5031436;28;20211;-67
2023/04/14 01:40:39;;;;;;;12.90;10.27;;;;;;;;;;5031503;28;20230;-66
2023/04/14 02:18:07;;;;;;;14.80;10.93;;;;;;;;;;5030480;28;20241;-67
2023/04/14 02:20:33;;;;;;;15.97;12.37;;;;;;;;;;5013267;28;20199;-66
2023/04/14 02:23:00;;;;;;;16.03;12.13;;;;;;;;;;4996885;28;20558;-67
2023/04/14 02:25:29;;;;;;;13.90;11.83;;;;;;;;;;5013013;28;20210;-66
2023/04/14 02:28:05;;;;;;;15.80;12.23;;;;;;;;;;4997099;28;20200;-66
2023/04/14 02:30:34;;;;;;;15.97;12.43;;;;;;;;;;5013286;28;20274;-66
2023/04/14 02:33:02;;;;;;;16.30;12.70;;;;;;;;;;5013507;28;20195;-66
2023/04/14 02:35:31;;;;;;;15.53;12.03;;;;;;;;;;5030627;28;20281;-68
2023/04/14 02:38:04;;;;;;;16.70;12.50;;;;;;;;;;4996263;28;20264;-68
2023/04/14 02:40:33;;;;;;;14.27;12.07;;;;;;;;;;5012850;28;20704;-68
2023/04/14 02:43:01;;;;;;;16.23;12.63;;;;;;;;;;4994399;28;20203;-68
2023/04/14 02:45:29;;;;;;;17.23;12.83;;;;;;;;;;5033359;28;20267;-68
2023/04/14 02:47:57;;;;;;;17.50;13.43;;;;;;;;;;4998966;28;20550;-68
2023/04/14 02:50:23;;;;;;;17.57;13.13;;;;;;;;;;5012920;28;20204;-68
2023/04/14 02:53:01;;;;;;;18.07;12.80;;;;;;;;;;5000016;28;20199;-68
2023/04/14 02:55:32;;;;;;;14.67;11.93;;;;;;;;;;5015833;28;20609;-68
2023/04/14 02:57:59;;;;;;;17.70;13.17;;;;;;;;;;4999043;28;20246;-69
2023/04/14 03:00:28;;;;;;;18.30;13.63;;;;;;;;;;4999668;28;20606;-68
2023/04/14 03:02:56;;;;;;;19.23;13.43;;;;;;;;;;4999173;28;20254;-68
2023/04/14 03:05:23;;;;;;;18.40;13.77;;;;;;;;;;4998738;28;20195;-68
2023/04/14 03:08:09;;;;;;;17.13;12.90;;;;;;;;;;4994892;28;20206;-70
2023/04/14 03:10:40;;;;;;;16.00;12.43;;;;;;;;;;5027679;28;20201;-69
2023/04/14 03:13:07;;;;;;;17.53;12.53;;;;;;;;;;5010431;28;20203;-69
2023/04/14 03:15:36;;;;;;;18.43;13.40;;;;;;;;;;5009945;28;20667;-69
2023/04/14 03:18:03;;;;;;;17.67;13.23;;;;;;;;;;4994459;28;20564;-69
2023/04/14 03:20:30;;;;;;;23.60;19.47;;;;;;;;;;5012967;28;20207;-68
2023/04/14 03:23:03;;;;;;;18.77;14.03;;;;;;;;;;5030348;28;20195;-69
2023/04/14 03:25:40;;;;;;;20.33;15.70;;;;;;;;;;4991175;28;20187;-68
2023/04/14 03:28:14;;;;;;;19.53;14.23;;;;;;;;;;4993116;28;20208;-69
2023/04/14 03:30:45;;;;;;;19.53;15.07;;;;;;;;;;5010569;28;20226;-69
2023/04/14 03:33:15;;;;;;;20.77;15.73;;;;;;;;;;4994358;28;20234;-68
2023/04/14 03:35:42;;;;;;;21.73;15.20;;;;;;;;;;5032527;28;20199;-68
2023/04/14 03:38:09;;;;;;;18.33;15.07;;;;;;;;;;5007221;28;20227;-69
2023/04/14 03:40:38;;;;;;;15.50;13.17;;;;;;;;;;5009694;28;20583;-71
2023/04/14 03:43:18;;;;;;;16.70;12.60;;;;;;;;;;5009578;28;20242;-70
2023/04/14 03:45:48;;;;;;;19.47;13.60;;;;;;;;;;4993662;28;20199;-70
2023/04/14 03:48:18;;;;;;;20.37;13.37;;;;;;;;;;4978304;28;20231;-70
2023/04/14 03:50:50;;;;;;;18.33;14.03;;;;;;;;;;5010340;28;20678;-69
2023/04/14 03:53:18;;;;;;;17.87;13.40;;;;;;;;;;5008814;28;20207;-69
2023/04/14 03:55:47;;;;;;;19.57;12.97;;;;;;;;;;5008866;28;21003;-70
2023/04/14 03:58:14;;;;;;;18.30;13.80;;;;;;;;;;5026889;28;20215;-70
2023/04/14 04:00:42;;;;;;;17.00;13.07;;;;;;;;;;4993504;28;20272;-70
2023/04/14 04:03:09;;;;;;;19.27;15.37;;;;;;;;;;5010191;28;20199;-70
2023/04/14 04:05:39;;;;;;;18.03;14.07;;;;;;;;;;5026318;28;20197;-69
2023/04/14 04:08:07;;;;;;;19.10;13.53;;;;;;;;;;5009484;28;20193;-71
2023/04/14 04:10:34;;;;;;;17.77;13.70;;;;;;;;;;5025451;28;20624;-69
2023/04/14 04:13:01;;;;;;;17.50;13.43;;;;;;;;;;5009773;28;20199;-69
2023/04/14 04:15:31;;;;;;;19.27;14.40;;;;;;;;;;4979000;28;20263;-69
2023/04/14 04:17:57;;;;;;;19.87;13.47;;;;;;;;;;5008645;28;20204;-68
2023/04/14 04:20:24;;;;;;;19.40;15.03;;;;;;;;;;4993650;28;20191;-68
2023/04/14 04:22:53;;;;;;;19.70;14.67;;;;;;;;;;5009810;28;20255;-69
2023/04/14 04:25:20;;;;;;;21.10;15.70;;;;;;;;;;4993716;28;20192;-68
2023/04/14 04:28:03;;;;;;;19.70;14.63;;;;;;;;;;5008663;28;20280;-69
2023/04/14 04:30:31;;;;;;;21.90;14.47;;;;;;;;;;4993114;28;20222;-69
2023/04/14 04:33:03;;;;;;;19.50;14.60;;;;;;;;;;5010179;28;20210;-68
2023/04/14 04:35:30;;;;;;;18.83;13.63;;;;;;;;;;4993344;28;20192;-69
2023/04/14 04:37:57;;;;;;;19.67;14.87;;;;;;;;;;5009652;28;20222;-70
2023/04/14 04:40:24;;;;;;;18.73;13.50;;;;;;;;;;5008605;28;20227;-68
2023/04/14 04:42:51;;;;;;;18.57;14.43;;;;;;;;;;5009656;28;20242;-70
2023/04/14 04:45:30;;;;;;;19.67;15.03;;;;;;;;;;5025901;28;20179;-68
2023/04/14 04:47:57;;;;;;;21.27;15.57;;;;;;;;;;4993432;28;20269;-69
2023/04/14 04:50:24;;;;;;;20.30;14.90;;;;;;;;;;5008979;28;20540;-69
2023/04/14 04:52:51;;;;;;;20.83;15.63;;;;;;;;;;5027045;28;20204;-70
2023/04/14 04:55:18;;;;;;;20.57;15.47;;;;;;;;;;5023656;28;20187;-69
2023/04/14 04:57:45;;;;;;;21.40;14.60;;;;;;;;;;5027640;28;20298;-67
2023/04/14 05:00:11;;;;;;;23.93;15.00;;;;;;;;;;5032715;28;20191;-68
2023/04/14 05:02:38;;;;;;;18.70;14.20;;;;;;;;;;5025403;28;20195;-68
2023/04/14 05:05:07;;;;;;;19.23;14.97;;;;;;;;;;5024692;28;20187;-68
2023/04/14 05:07:34;;;;;;;20.23;15.70;;;;;;;;;;5024678;28;20245;-69
2023/04/14 05:10:00;;;;;;;20.47;15.10;;;;;;;;;;5034007;28;20715;-69
2023/04/14 05:12:27;;;;;;;25.27;16.23;;;;;;;;;;5025644;28;20199;-67
2023/04/14 05:14:55;;;;;;;21.50;15.97;;;;;;;;;;5025139;28;20866;-71
2023/04/14 05:17:22;;;;;;;23.97;17.23;;;;;;;;;;5025037;28;20201;-69
2023/04/14 05:19:48;;;;;;;26.47;18.27;;;;;;;;;;5004428;28;20619;-70
2023/04/14 05:22:15;;;;;;;25.20;17.63;;;;;;;;;;5042944;28;20533;-69
2023/04/14 05:24:47;;;;;;;29.43;19.60;;;;;;;;;;5031775;28;20568;-69
2023/04/14 05:27:13;;;;;;;26.53;18.60;;;;;;;;;;5025379;28;20459;-70
2023/04/14 05:29:40;;;;;;;26.17;18.80;;;;;;;;;;5000647;28;20218;-70
2023/04/14 05:32:08;;;;;;;28.33;19.13;;;;;;;;;;5025557;28;20184;-69
2023/04/14 05:34:35;;;;;;;27.03;18.50;;;;;;;;;;5029258;28;20318;-71
2023/04/14 05:37:01;;;;;;;27.20;19.20;;;;;;;;;;5007215;28;20715;-69
2023/04/14 05:39:28;;;;;;;28.90;18.03;;;;;;;;;;5030503;28;20227;-70
2023/04/14 05:41:55;;;;;;;26.43;18.83;;;;;;;;;;5025335;28;20199;-71
2023/04/14 05:44:23;;;;;;;23.50;17.00;;;;;;;;;;5007865;28;20190;-70
2023/04/14 05:46:50;;;;;;;25.50;17.63;;;;;;;;;;5025158;28;20785;-67
2023/04/14 05:49:19;;;;;;;22.60;16.80;;;;;;;;;;5030377;28;20651;-68
2023/04/14 05:51:45;;;;;;;22.93;17.47;;;;;;;;;;5027720;28;20200;-69
2023/04/14 05:54:13;;;;;;;24.37;17.60;;;;;;;;;;5033755;28;20662;-68
2023/04/14 05:56:40;;;;;;;23.73;17.77;;;;;;;;;;5011537;28;20192;-68
2023/04/14 05:59:07;;;;;;;17.63;14.40;;;;;;;;;;5030229;28;20222;-69
2023/04/14 06:01:34;;;;;;;18.63;14.10;;;;;;;;;;5017594;28;20192;-68
2023/04/14 06:04:02;;;;;;;19.33;14.60;;;;;;;;;;5007225;28;20192;-68
2023/04/14 06:06:31;;;;;;;20.90;14.50;;;;;;;;;;5025156;28;20191;-68
2023/04/14 06:08:58;;;;;;;15.73;11.60;;;;;;;;;;5009409;28;20194;-67
2023/04/14 06:11:26;;;;;;;15.83;12.53;;;;;;;;;;5024705;28;20269;-68
2023/04/14 06:13:53;;;;;;;14.20;11.73;;;;;;;;;;5031395;28;20198;-69
2023/04/14 06:16:20;;;;;;;17.70;12.60;;;;;;;;;;5027419;28;20178;-69
2023/04/14 06:18:47;;;;;;;15.10;12.70;;;;;;;;;;5034260;28;20348;-68
2023/04/14 06:21:14;;;;;;;12.90;11.13;;;;;;;;;;5043832;28;20197;-68
2023/04/14 06:23:42;;;;;;;11.63;10.20;;;;;;;;;;5028049;28;20281;-68
2023/04/14 06:26:09;;;;;;;10.13;7.93;;;;;;;;;;5028851;28;20187;-68
2023/04/14 06:28:36;;;;;;;9.93;7.87;;;;;;;;;;5033436;28;20273;-68
2023/04/14 06:31:03;;;;;;;9.37;8.27;;;;;;;;;;5040154;28;20199;-70
2023/04/14 06:33:31;;;;;;;9.70;8.50;;;;;;;;;;5017343;28;20195;-68
2023/04/14 06:35:58;;;;;;;12.40;8.57;;;;;;;;;;5029103;28;20262;-68
2023/04/14 06:38:25;;;;;;;12.20;9.10;;;;;;;;;;5009567;28;20226;-71
2023/04/14 06:40:52;;;;;;;9.80;8.53;;;;;;;;;;5032842;28;20219;-68
2023/04/14 06:43:19;;;;;;;11.50;9.50;;;;;;;;;;5028285;28;20273;-69
2023/04/14 06:45:46;;;;;;;8.77;7.87;;;;;;;;;;5009987;28;20202;-68
2023/04/14 06:48:14;;;;;;;10.20;8.73;;;;;;;;;;5028768;28;20199;-68
2023/04/14 06:50:41;;;;;;;9.90;8.60;;;;;;;;;;5010150;28;20310;-69
2023/04/14 06:53:10;;;;;;;11.20;9.40;;;;;;;;;;5027523;28;20294;-70
2023/04/14 06:55:39;;;;;;;11.23;8.97;;;;;;;;;;5046690;28;20207;-69
2023/04/14 06:58:06;;;;;;;10.17;9.00;;;;;;;;;;5037218;28;20196;-69
2023/04/14 07:00:32;;;;;;;10.93;9.00;;;;;;;;;;5030399;28;20195;-69
2023/04/14 07:02:59;;;;;;;10.50;9.00;;;;;;;;;;5038048;28;20218;-69
2023/04/14 07:05:26;;;;;;;13.27;9.33;;;;;;;;;;5045258;28;20790;-69
2023/04/14 07:07:53;;;;;;;11.50;9.60;;;;;;;;;;5030378;28;20215;-69
2023/04/14 07:10:20;;;;;;;11.20;10.00;;;;;;;;;;5035388;28;20214;-69
2023/04/14 07:12:46;;;;;;;10.63;9.53;;;;;;;;;;5031002;28;20219;-69
2023/04/14 07:15:13;;;;;;;10.43;9.37;;;;;;;;;;5008480;28;20700;-69
2023/04/14 07:17:41;;;;;;;11.03;9.37;;;;;;;;;;5026847;28;20186;-69
2023/04/14 07:20:08;;;;;;;11.07;9.43;;;;;;;;;;5034893;28;20262;-70
2023/04/14 07:22:35;;;;;;;12.93;10.10;;;;;;;;;;5027387;28;20596;-69
2023/04/14 07:25:02;;;;;;;13.20;10.17;;;;;;;;;;5043769;28;20602;-68
2023/04/14 07:27:30;;;;;;;11.53;10.17;;;;;;;;;;5036290;28;20187;-69
2023/04/14 07:30:00;;;;;;;9.90;8.90;;;;;;;;;;5038981;28;20822;-71
2023/04/14 07:32:28;;;;;;;10.57;8.97;;;;;;;;;;5035280;28;20695;-69
2023/04/14 07:34:56;;;;;;;12.27;10.20;;;;;;;;;;5026081;28;20187;-70
2023/04/14 07:37:25;;;;;;;11.13;9.93;;;;;;;;;;5026413;28;20589;-70
2023/04/14 07:39:56;;;;;;;10.80;9.70;;;;;;;;;;5026032;28;20768;-69
2023/04/14 07:42:23;;;;;;;10.40;9.40;;;;;;;;;;5034444;28;20314;-70
2023/04/14 07:44:50;;;;;;;10.30;9.30;;;;;;;;;;5030006;28;20192;-69
2023/04/14 07:47:17;;;;;;;11.53;10.03;;;;;;;;;;5041687;28;20201;-69
2023/04/14 07:49:44;;;;;;;12.10;10.47;;;;;;;;;;5018237;28;20191;-69
2023/04/14 07:52:11;;;;;;;13.33;11.07;;;;;;;;;;5014703;28;20202;-73
2023/04/14 07:54:38;;;;;;;13.70;12.17;;;;;;;;;;5042658;28;20666;-69
2023/04/14 07:57:07;;;;;;;12.23;10.37;;;;;;;;;;5032553;28;20191;-69
2023/04/14 07:59:34;;;;;;;14.90;12.57;;;;;;;;;;5037781;28;20202;-68
2023/04/14 08:02:01;;;;;;;13.00;11.67;;;;;;;;;;5034704;28;20191;-68
2023/04/14 08:04:27;;;;;;;15.50;11.97;;;;;;;;;;5041139;28;20193;-68
2023/04/14 08:06:54;;;;;;;15.63;12.33;;;;;;;;;;5045602;28;20194;-66
2023/04/14 08:09:21;;;;;;;14.13;12.27;;;;;;;;;;5045518;28;20195;-67
2023/04/14 08:11:48;;;;;;;15.33;12.77;;;;;;;;;;5044798;28;20190;-68
2023/04/14 08:14:14;;;;;;;13.63;11.93;;;;;;;;;;5039930;28;20277;-68
2023/04/14 08:16:41;;;;;;;12.70;10.80;;;;;;;;;;5019982;28;20202;-68
2023/04/14 08:19:08;;;;;;;13.43;11.87;;;;;;;;;;5009282;28;20238;-67
2023/04/14 08:21:35;;;;;;;14.00;11.90;;;;;;;;;;5025816;28;20655;-67
2023/04/14 08:24:05;;;;;;;14.87;12.20;;;;;;;;;;5036570;28;20203;-68
2023/04/14 08:26:33;;;;;;;13.93;12.23;;;;;;;;;;5025178;28;20183;-70
2023/04/14 08:28:59;;;;;;;15.07;13.43;;;;;;;;;;5024322;28;20206;-66
2023/04/14 08:31:27;;;;;;;15.03;13.27;;;;;;;;;;5025182;28;20576;-68
2023/04/14 08:33:54;;;;;;;14.67;12.27;;;;;;;;;;5025437;28;20199;-67
2023/04/14 08:36:21;;;;;;;16.23;13.27;;;;;;;;;;5042020;28;20182;-67
2023/04/14 08:38:48;;;;;;;15.87;13.80;;;;;;;;;;5015925;28;20210;-67
2023/04/14 08:41:15;;;;;;;16.17;13.50;;;;;;;;;;5041166;28;20182;-68
2023/04/14 08:43:42;;;;;;;16.80;13.57;;;;;;;;;;5019322;28;20202;-69
2023/04/14 08:46:10;;;;;;;14.10;12.57;;;;;;;;;;5001560;28;20524;-68
2023/04/14 08:48:37;;;;;;;15.97;12.73;;;;;;;;;;5009456;28;20555;-68
2023/04/14 08:51:18;;;;;;;14.93;12.90;;;;;;;;;;5043577;28;20187;-68
2023/04/14 08:53:47;;;;;;;14.63;13.00;;;;;;;;;;5011854;28;20195;-67
2023/04/14 08:56:15;;;;;;;15.10;11.93;;;;;;;;;;5025969;28;20214;-67
2023/04/14 08:58:42;;;;;;;13.97;12.17;;;;;;;;;;5025545;28;20663;-67
2023/04/14 09:01:10;;;;;;;15.30;11.87;;;;;;;;;;5025857;28;20192;-67
2023/04/14 09:03:36;;;;;;;13.77;12.33;;;;;;;;;;5026099;28;20993;-67
2023/04/14 09:06:04;;;;;;;13.00;11.60;;;;;;;;;;5026386;28;20195;-67
2023/04/14 09:08:32;;;;;;;11.57;10.37;;;;;;;;;;5025230;28;20191;-67
2023/04/14 09:11:02;;;;;;;11.53;9.70;;;;;;;;;;4972565;28;20676;-67
2023/04/14 09:13:29;;;;;;;13.00;10.23;;;;;;;;;;5024565;28;20869;-67
2023/04/14 09:15:58;;;;;;;11.97;10.20;;;;;;;;;;5023356;28;20215;-67
2023/04/14 09:18:26;;;;;;;11.60;10.10;;;;;;;;;;4996383;28;20234;-67
2023/04/14 09:20:54;;;;;;;12.10;9.90;;;;;;;;;;5008046;28;20238;-67
2023/04/14 09:23:41;;;;;;;11.83;10.53;;;;;;;;;;5034768;28;20194;-70
2023/04/14 09:26:09;;;;;;;12.27;10.97;;;;;;;;;;5007927;28;20225;-68
2023/04/14 09:28:36;;;;;;;11.77;10.03;;;;;;;;;;5025665;28;20215;-67
2023/04/14 09:31:04;;;;;;;11.87;10.67;;;;;;;;;;5041459;28;20253;-67
2023/04/14 09:33:31;;;;;;;11.67;10.47;;;;;;;;;;5025316;28;20567;-67
2023/04/14 09:35:58;;;;;;;12.97;10.70;;;;;;;;;;5025659;28;20195;-67
2023/04/14 09:38:35;;;;;;;10.70;9.60;;;;;;;;;;5025333;28;20217;-67
2023/04/14 09:41:03;;;;;;;11.60;10.40;;;;;;;;;;5024931;28;20245;-67
2023/04/14 09:43:29;;;;;;;10.43;8.73;;;;;;;;;;5025017;28;20214;-67
2023/04/14 09:45:57;;;;;;;9.60;8.60;;;;;;;;;;5025060;28;20215;-68
2023/04/14 09:48:24;;;;;;;10.73;8.70;;;;;;;;;;5025470;28;20207;-67
2023/04/14 09:50:56;;;;;;;10.47;8.20;;;;;;;;;;5030222;28;20203;-68
2023/04/14 09:53:26;;;;;;;9.70;8.70;;;;;;;;;;5027803;28;20627;-68
2023/04/14 09:55:53;;;;;;;9.83;8.83;;;;;;;;;;5029150;28;20274;-69
2023/04/14 09:58:21;;;;;;;9.60;8.60;;;;;;;;;;5011672;28;20203;-68
2023/04/14 10:00:52;;;;;;;8.77;7.87;;;;;;;;;;5033902;28;20347;-68
2023/04/14 10:03:33;;;;;;;9.33;8.07;;;;;;;;;;5033816;28;20195;-69
2023/04/14 10:06:01;;;;;;;8.90;8.03;;;;;;;;;;5028721;28;20192;-69
2023/04/14 10:08:37;;;;;;;8.60;7.80;;;;;;;;;;5011948;28;20282;-67
2023/04/14 10:11:19;;;;;;;7.93;7.13;;;;;;;;;;5045063;28;20277;-67
2023/04/14 10:13:48;;;;;;;8.53;7.03;;;;;;;;;;5028170;28;20663;-69
2023/04/14 10:16:14;;;;;;;7.30;6.60;;;;;;;;;;5028080;28;20250;-69
2023/04/14 10:18:41;;;;;;;8.57;7.67;;;;;;;;;;5026564;28;20191;-68
2023/04/14 10:21:08;;;;;;;9.23;8.33;;;;;;;;;;5027642;28;20245;-68
2023/04/14 10:23:40;;;;;;;8.87;7.97;;;;;;;;;;5020073;28;20214;-68
2023/04/14 10:26:11;;;;;;;10.13;8.73;;;;;;;;;;5028493;28;20983;-67
2023/04/14 10:28:56;;;;;;;9.60;8.60;;;;;;;;;;4994221;28;20234;-68
2023/04/14 10:31:24;;;;;;;10.33;8.83;;;;;;;;;;5011173;28;20195;-68
2023/04/14 10:33:51;;;;;;;8.57;7.77;;;;;;;;;;5028114;28;20196;-68
2023/04/14 10:36:21;;;;;;;8.83;7.90;;;;;;;;;;5011583;28;20548;-68
2023/04/14 10:38:48;;;;;;;9.40;8.50;;;;;;;;;;5011506;28;20207;-68
2023/04/14 10:41:15;;;;;;;9.60;8.60;;;;;;;;;;5030495;28;20215;-68
2023/04/14 10:43:42;;;;;;;9.33;8.43;;;;;;;;;;5030364;28;20977;-66
2023/04/14 10:46:09;;;;;;;11.17;8.57;;;;;;;;;;5033859;28;20192;-68
2023/04/14 10:48:37;;;;;;;11.77;8.73;;;;;;;;;;5027508;28;20187;-66
2023/04/14 10:51:08;;;;;;;10.80;8.80;;;;;;;;;;4989897;28;20207;-66
2023/04/14 10:53:37;;;;;;;10.77;9.07;;;;;;;;;;5030511;28;20818;-66
2023/04/14 10:56:05;;;;;;;10.47;9.10;;;;;;;;;;5026917;28;20195;-70
2023/04/14 10:58:32;;;;;;;11.07;9.10;;;;;;;;;;5008835;28;20302;-70
2023/04/14 11:00:59;;;;;;;11.23;9.47;;;;;;;;;;5008846;28;20215;-67
2023/04/14 11:03:31;;;;;;;11.10;9.87;;;;;;;;;;5026421;28;20718;-66
2023/04/14 11:05:58;;;;;;;11.90;10.50;;;;;;;;;;5030164;28;20657;-68
2023/04/14 11:08:34;;;;;;;12.57;10.67;;;;;;;;;;5027770;28;20187;-68
2023/04/14 11:11:01;;;;;;;12.80;10.60;;;;;;;;;;5027658;28;20817;-71
2023/04/14 11:13:29;;;;;;;11.80;10.37;;;;;;;;;;4993483;28;20230;-71
2023/04/14 11:15:56;;;;;;;11.97;10.37;;;;;;;;;;5009842;28;20209;-71
2023/04/14 11:18:26;;;;;;;11.33;10.13;;;;;;;;;;5028008;28;20295;-71
2023/04/14 11:21:06;;;;;;;14.50;10.33;;;;;;;;;;5026708;28;20254;-71
2023/04/14 11:23:33;;;;;;;14.33;10.70;;;;;;;;;;4997481;28;20230;-68
2023/04/14 11:26:01;;;;;;;14.23;10.67;;;;;;;;;;5027498;28;20334;-67
2023/04/14 11:28:31;;;;;;;12.93;10.93;;;;;;;;;;5026788;28;20195;-68
2023/04/14 11:30:58;;;;;;;13.27;11.83;;;;;;;;;;5009661;28;20235;-68
2023/04/14 11:33:29;;;;;;;15.53;12.83;;;;;;;;;;5027243;28;20195;-68
2023/04/14 11:35:57;;;;;;;17.10;13.77;;;;;;;;;;5010536;28;20233;-69
2023/04/14 11:38:26;;;;;;;18.97;13.87;;;;;;;;;;5027240;28;20646;-69
2023/04/14 11:40:53;;;;;;;18.23;14.43;;;;;;;;;;5030323;28;20710;-69
2023/04/14 11:43:20;;;;;;;16.90;14.77;;;;;;;;;;5026605;28;20199;-69
2023/04/14 11:45:48;;;;;;;19.30;15.30;;;;;;;;;;5009461;28;20190;-69
2023/04/14 11:48:15;;;;;;;17.70;14.57;;;;;;;;;;5026294;28;20198;-70
2023/04/14 11:50:44;;;;;;;18.13;14.60;;;;;;;;;;5026672;28;20658;-69
2023/04/14 11:53:12;;;;;;;18.63;14.80;;;;;;;;;;5017574;28;20298;-69
2023/04/14 11:55:43;;;;;;;16.53;14.30;;;;;;;;;;5009415;28;20277;-69
2023/04/14 11:58:11;;;;;;;19.67;15.93;;;;;;;;;;5026968;28;20191;-69
2023/04/14 12:00:39;;;;;;;18.60;14.67;;;;;;;;;;5034626;28;20281;-69
2023/04/14 12:03:06;;;;;;;19.20;14.97;;;;;;;;;;5027065;28;21007;-67
2023/04/14 12:05:34;;;;;;;18.50;14.67;;;;;;;;;;5026321;28;20203;-68
2023/04/14 12:08:03;;;;;;;17.97;14.80;;;;;;;;;;5014459;28;20717;-68
2023/04/14 12:10:31;;;;;;;18.90;14.87;;;;;;;;;;5044875;28;20593;-67
2023/04/14 12:12:59;;;;;;;17.63;14.40;;;;;;;;;;5046751;28;20198;-68
2023/04/14 12:15:27;;;;;;;19.67;15.10;;;;;;;;;;5027132;28;20187;-68
2023/04/14 12:17:54;;;;;;;17.80;14.17;;;;;;;;;;5027139;28;20183;-68
2023/04/14 12:20:22;;;;;;;16.80;14.23;;;;;;;;;;5011514;28;20286;-68
2023/04/14 12:22:50;;;;;;;20.67;14.63;;;;;;;;;;5017625;28;20322;-67
2023/04/14 12:25:17;;;;;;;18.27;14.23;;;;;;;;;;5031549;28;20198;-66
2023/04/14 12:27:49;;;;;;;17.17;14.20;;;;;;;;;;5008239;28;20870;-68
2023/04/14 12:30:19;;;;;;;19.97;15.30;;;;;;;;;;5024855;28;20205;-66
2023/04/14 12:32:46;;;;;;;18.43;13.90;;;;;;;;;;5025598;28;20191;-67
2023/04/14 12:35:13;;;;;;;17.63;14.60;;;;;;;;;;5007169;28;20786;-67
2023/04/14 12:37:51;;;;;;;19.10;13.97;;;;;;;;;;5025518;28;20190;-67
2023/04/14 12:40:19;;;;;;;18.30;14.00;;;;;;;;;;5028281;28;20340;-66
2023/04/14 12:42:48;;;;;;;20.13;14.77;;;;;;;;;;5023214;28;20200;-65
2023/04/14 12:45:16;;;;;;;20.10;15.10;;;;;;;;;;5025204;28;20695;-66
2023/04/14 12:47:51;;;;;;;19.57;14.40;;;;;;;;;;5026447;28;20250;-65
2023/04/14 12:50:22;;;;;;;16.90;13.70;;;;;;;;;;5025480;28;20646;-66
2023/04/14 12:52:50;;;;;;;24.40;15.10;;;;;;;;;;5026256;28;20206;-65
2023/04/14 12:55:35;;;;;;;18.27;13.73;;;;;;;;;;5008381;28;20183;-68
2023/04/14 12:58:03;;;;;;;18.03;13.47;;;;;;;;;;5008693;28;20183;-69
2023/04/14 13:00:30;;;;;;;20.63;14.03;;;;;;;;;;5008266;28;20238;-67
2023/04/14 13:02:57;;;;;;;18.00;13.07;;;;;;;;;;5026261;28;20187;-67
2023/04/14 13:05:24;;;;;;;17.30;13.13;;;;;;;;;;5026023;28;20566;-67
2023/04/14 13:07:51;;;;;;;19.87;13.17;;;;;;;;;;5030453;28;21059;-67
2023/04/14 13:10:18;;;;;;;21.73;15.73;;;;;;;;;;5034495;28;20277;-67
2023/04/14 13:12:45;;;;;;;17.70;13.33;;;;;;;;;;5027436;28;20199;-66
2023/04/14 13:15:12;;;;;;;18.50;14.00;;;;;;;;;;5009046;28;20244;-66
2023/04/14 13:17:59;;;;;;;20.03;14.27;;;;;;;;;;5008313;28;20187;-67
2023/04/14 13:20:26;;;;;;;20.17;13.30;;;;;;;;;;5028032;28;20215;-65
2023/04/14 13:22:53;;;;;;;16.43;12.60;;;;;;;;;;5030258;28;20230;-65
2023/04/14 13:25:20;;;;;;;17.77;12.20;;;;;;;;;;5023008;28;20767;-65
2023/04/14 13:27:48;;;;;;;15.80;12.27;;;;;;;;;;5028263;28;20936;-65
2023/04/14 13:30:15;;;;;;;21.67;17.43;;;;;;;;;;5041749;28;20201;-66
2023/04/14 13:32:42;;;;;;;67.83;51.23;;;;;;;;;;5018037;28;20183;-66
2023/04/14 13:35:09;;;;;;;14.70;12.57;;;;;;;;;;5028998;28;20237;-65
2023/04/14 13:37:37;;;;;;;17.03;11.73;;;;;;;;;;5033119;28;20570;-66
2023/04/14 13:40:04;;;;;;;15.73;11.17;;;;;;;;;;5036721;28;20238;-67
2023/04/14 13:42:31;;;;;;;16.53;12.37;;;;;;;;;;5020751;28;20977;-66
2023/04/14 13:44:58;;;;;;;16.53;13.40;;;;;;;;;;5029841;28;20195;-65
2023/04/14 13:47:25;;;;;;;14.63;11.30;;;;;;;;;;5029743;28;20617;-64
2023/04/14 13:49:51;;;;;;;15.00;12.70;;;;;;;;;;5033580;28;20202;-66
2023/04/14 13:52:21;;;;;;;14.93;12.27;;;;;;;;;;5037732;28;20195;-66
2023/04/14 13:54:49;;;;;;;16.77;12.20;;;;;;;;;;5040426;28;20203;-65
2023/04/14 13:57:16;;;;;;;15.53;11.90;;;;;;;;;;5038363;28;20274;-63
2023/04/14 13:59:44;;;;;;;15.80;11.87;;;;;;;;;;5033711;28;20187;-64
2023/04/14 14:02:10;;;;;;;14.57;11.70;;;;;;;;;;5044012;28;20206;-63
2023/04/14 14:04:39;;;;;;;14.23;11.77;;;;;;;;;;5029278;28;20375;-63
2023/04/14 14:07:06;;;;;;;15.47;12.57;;;;;;;;;;5028769;28;20219;-64
2023/04/14 14:09:32;;;;;;;15.67;12.00;;;;;;;;;;5028750;28;20253;-64
2023/04/14 14:12:00;;;;;;;18.80;13.67;;;;;;;;;;5031575;28;20206;-63
2023/04/14 14:14:28;;;;;;;13.43;11.20;;;;;;;;;;5031336;28;20746;-63
2023/04/14 14:16:55;;;;;;;18.87;13.23;;;;;;;;;;5030966;28;20208;-63
2023/04/14 14:19:22;;;;;;;18.30;13.30;;;;;;;;;;5031503;28;20230;-63
2023/04/14 14:21:49;;;;;;;17.43;13.43;;;;;;;;;;5031494;28;20219;-64
2023/04/14 14:24:15;;;;;;;18.50;13.13;;;;;;;;;;5031347;28;20195;-64
2023/04/14 14:26:43;;;;;;;18.87;14.40;;;;;;;;;;5030487;28;20226;-64
2023/04/14 14:29:10;;;;;;;19.87;13.77;;;;;;;;;;5031177;28;20182;-64
2023/04/14 14:31:37;;;;;;;19.00;13.37;;;;;;;;;;5031282;28;20783;-64
2023/04/14 14:34:05;;;;;;;18.13;13.70;;;;;;;;;;5031243;28;20274;-64
2023/04/14 14:36:32;;;;;;;17.37;13.10;;;;;;;;;;5030896;28;20289;-65
2023/04/14 14:38:59;;;;;;;16.13;12.63;;;;;;;;;;5030460;28;20274;-65
2023/04/14 14:41:26;;;;;;;16.03;12.77;;;;;;;;;;5030010;28;20269;-64
2023/04/14 14:43:53;;;;;;;17.20;12.60;;;;;;;;;;5031266;28;20237;-64
2023/04/14 14:46:21;;;;;;;17.07;13.00;;;;;;;;;;5031017;28;20278;-65
2023/04/14 14:48:47;;;;;;;15.70;12.67;;;;;;;;;;5031421;28;20200;-66
2023/04/14 14:51:14;;;;;;;16.23;12.47;;;;;;;;;;5033421;28;20665;-65
2023/04/14 14:53:41;;;;;;;19.83;14.47;;;;;;;;;;5033627;28;20192;-65
2023/04/14 14:56:08;;;;;;;20.57;15.63;;;;;;;;;;5033436;28;20234;-66
2023/04/14 14:58:36;;;;;;;21.27;14.73;;;;;;;;;;5015597;28;20192;-65
2023/04/14 15:01:04;;;;;;;23.93;16.90;;;;;;;;;;5032836;28;20221;-65
2023/04/14 15:03:32;;;;;;;34.57;21.47;;;;;;;;;;5032642;28;20186;-65